Time;durP1;ratioP1;P1;durP2;ratioP2;P2;SDS_P1;SDS_P2;PMS_P1;PMS_P2;Temp;Humidity;BMP_temperature;BMP_pressure;BME280_temperature;BME280_humidity;BME280_pressure;Samples;Min_cycle;Max_cycle;Signal;HPM_P1;HPM_P2
2022/03/15 00:01:06;;;;;;;0.40;0.40;;;5.20;99.90;;;;;;4996539;28;20212;-63
2022/03/15 00:03:33;;;;;;;0.40;0.40;;;5.20;1.00;;;;;;4982884;28;20537;-62
2022/03/15 00:06:01;;;;;;;0.50;0.50;;;5.20;1.00;;;;;;4982228;28;20202;-62
2022/03/15 00:08:29;;;;;;;0.50;0.50;;;5.20;1.00;;;;;;4980206;28;20205;-63
2022/03/15 00:11:02;;;;;;;0.50;0.50;;;5.30;99.90;;;;;;4995433;28;20198;-63
2022/03/15 00:13:29;;;;;;;0.40;0.40;;;5.30;99.90;;;;;;4987247;28;20193;-63
2022/03/15 00:16:00;;;;;;;0.50;0.50;;;6.30;99.90;;;;;;4986750;28;20260;-63
2022/03/15 00:18:30;;;;;;;0.50;0.50;;;5.30;99.90;;;;;;4997868;28;20580;-62
2022/03/15 00:21:02;;;;;;;0.50;0.50;;;5.30;99.90;;;;;;4989511;28;20715;-63
2022/03/15 00:23:30;;;;;;;0.50;0.50;;;5.30;1.00;;;;;;4993768;28;20260;-62
2022/03/15 00:25:59;;;;;;;0.50;0.50;;;5.30;1.00;;;;;;4988099;28;20233;-61
2022/03/15 00:28:29;;;;;;;0.50;0.50;;;5.30;19.80;;;;;;4986525;28;20198;-62
2022/03/15 00:30:57;;;;;;;0.50;0.50;;;5.30;99.90;;;;;;4996857;28;20202;-63
2022/03/15 00:33:26;;;;;;;0.50;0.50;;;5.30;61.30;;;;;;4986199;28;20198;-63
2022/03/15 00:35:54;;;;;;;0.50;0.50;;;5.30;99.90;;;;;;4988214;28;20206;-62
2022/03/15 00:38:25;;;;;;;0.60;0.60;;;5.30;99.90;;;;;;4988510;28;20699;-63
2022/03/15 00:40:53;;;;;;;0.50;0.50;;;5.30;6.20;;;;;;4988012;28;20230;-62
2022/03/15 00:43:20;;;;;;;0.50;0.50;;;5.30;1.00;;;;;;4996834;28;20201;-62
2022/03/15 00:45:50;;;;;;;0.40;0.40;;;5.30;1.00;;;;;;4982056;28;20205;-62
2022/03/15 00:48:19;;;;;;;0.50;0.50;;;5.30;1.00;;;;;;4972841;28;20217;-62
2022/03/15 00:50:46;;;;;;;0.40;0.40;;;5.30;1.00;;;;;;4998025;28;20586;-62
2022/03/15 00:53:15;;;;;;;0.40;0.40;;;5.30;1.00;;;;;;4998650;28;20197;-65
2022/03/15 00:55:43;;;;;;;3.97;3.73;;;5.20;1.00;;;;;;4981950;28;20200;-62
2022/03/15 00:58:11;;;;;;;0.50;0.50;;;5.20;1.00;;;;;;4998599;28;20206;-63
2022/03/15 01:00:39;;;;;;;0.50;0.50;;;5.20;1.00;;;;;;4981060;28;20196;-63
2022/03/15 01:03:07;;;;;;;0.50;0.50;;;5.10;1.00;;;;;;4996387;28;20260;-63
2022/03/15 01:05:37;;;;;;;0.40;0.40;;;5.10;1.00;;;;;;4983506;28;20273;-63
2022/03/15 01:08:04;;;;;;;0.50;0.50;;;5.10;1.00;;;;;;4981151;28;20210;-63
2022/03/15 01:10:31;;;;;;;0.40;0.40;;;5.10;20.70;;;;;;4997782;28;20782;-63
2022/03/15 01:12:59;;;;;;;0.50;0.50;;;5.10;99.90;;;;;;4998027;28;20200;-62
2022/03/15 01:15:38;;;;;;;0.50;0.50;;;5.00;99.90;;;;;;4988439;28;20227;-62
2022/03/15 01:18:06;;;;;;;0.50;0.50;;;5.00;99.90;;;;;;4983245;28;20233;-62
2022/03/15 01:20:33;;;;;;;0.60;0.60;;;5.00;99.90;;;;;;4988632;28;20198;-62
2022/03/15 01:23:00;;;;;;;0.80;0.80;;;5.00;99.90;;;;;;4988154;28;20781;-63
2022/03/15 01:25:27;;;;;;;1.27;1.23;;;4.90;6.10;;;;;;4972007;28;20296;-62
2022/03/15 01:27:55;;;;;;;0.50;0.50;;;4.90;99.90;;;;;;4995612;28;20198;-62
2022/03/15 01:30:24;;;;;;;0.40;0.40;;;4.90;99.90;;;;;;4997200;28;20217;-62
2022/03/15 01:32:52;;;;;;;0.40;0.40;;;4.90;99.90;;;;;;4987419;28;20341;-62
2022/03/15 01:35:19;;;;;;;0.40;0.40;;;4.90;99.90;;;;;;4970482;28;20194;-61
2022/03/15 01:37:46;;;;;;;0.50;0.50;;;4.90;91.50;;;;;;4979741;28;20209;-62
2022/03/15 01:40:13;;;;;;;0.40;0.40;;;4.80;65.20;;;;;;4989433;28;20248;-62
2022/03/15 01:42:41;;;;;;;0.40;0.40;;;4.80;1.00;;;;;;4974229;28;20226;-61
2022/03/15 01:45:10;;;;;;;0.40;0.40;;;4.70;1.00;;;;;;4984953;28;20589;-61
2022/03/15 01:47:38;;;;;;;0.40;0.40;;;4.70;1.00;;;;;;4983559;28;20259;-62
2022/03/15 01:50:10;;;;;;;0.40;0.40;;;4.70;99.90;;;;;;4991410;28;20205;-62
2022/03/15 01:52:40;;;;;;;0.40;0.40;;;4.70;99.90;;;;;;4991439;28;20202;-62
2022/03/15 01:55:07;;;;;;;0.50;0.50;;;4.60;99.90;;;;;;4984407;28;20669;-60
2022/03/15 01:57:36;;;;;;;0.50;0.50;;;4.60;99.90;;;;;;4992246;28;20264;-61
2022/03/15 02:00:04;;;;;;;0.50;0.50;;;4.70;41.80;;;;;;4990612;28;20271;-62
2022/03/15 02:02:36;;;;;;;0.50;0.50;;;4.70;1.00;;;;;;4985157;28;20391;-62
2022/03/15 02:05:05;;;;;;;0.40;0.40;;;4.70;99.90;;;;;;4984961;28;20284;-62
2022/03/15 02:07:32;;;;;;;0.50;0.50;;;4.70;99.90;;;;;;4983852;28;20232;-62
2022/03/15 02:09:58;;;;;;;0.50;0.50;;;4.70;1.00;;;;;;5000349;28;20210;-62
2022/03/15 02:12:26;;;;;;;0.50;0.50;;;4.70;1.00;;;;;;4984693;28;20261;-64
2022/03/15 02:14:52;;;;;;;0.40;0.40;;;4.70;44.60;;;;;;4985065;28;20280;-62
2022/03/15 02:17:20;;;;;;;0.40;0.40;;;4.80;1.00;;;;;;4991051;28;20242;-62
2022/03/15 02:19:47;;;;;;;0.40;0.40;;;4.80;1.00;;;;;;4976504;28;20241;-62
2022/03/15 02:22:14;;;;;;;0.40;0.40;;;4.90;35.00;;;;;;4990957;28;20209;-62
2022/03/15 02:24:42;;;;;;;0.50;0.50;;;4.80;99.90;;;;;;4983487;28;20206;-62
2022/03/15 02:27:11;;;;;;;0.40;0.40;;;4.80;99.90;;;;;;4990768;28;20202;-62
2022/03/15 02:29:38;;;;;;;0.40;0.40;;;4.80;99.90;;;;;;4999860;28;20613;-63
2022/03/15 02:32:05;;;;;;;0.40;0.40;;;4.80;99.90;;;;;;4982625;28;20325;-64
2022/03/15 02:34:32;;;;;;;0.40;0.40;;;4.80;99.90;;;;;;4983992;28;20225;-63
2022/03/15 02:37:00;;;;;;;0.50;0.50;;;4.80;94.20;;;;;;4999673;28;20240;-62
2022/03/15 02:39:27;;;;;;;0.50;0.50;;;4.80;99.90;;;;;;4991138;28;20237;-62
2022/03/15 02:41:59;;;;;;;0.40;0.40;;;4.80;79.20;;;;;;4989944;28;20692;-62
2022/03/15 02:44:26;;;;;;;0.50;0.50;;;4.80;99.90;;;;;;4990770;28;20283;-62
2022/03/15 02:46:53;;;;;;;0.50;0.50;;;4.80;99.90;;;;;;4989963;28;20205;-63
2022/03/15 02:49:20;;;;;;;0.40;0.40;;;4.80;99.90;;;;;;4985432;28;20233;-63
2022/03/15 02:51:50;;;;;;;0.40;0.40;;;4.80;99.90;;;;;;4983009;28;20201;-62
2022/03/15 02:54:17;;;;;;;2.37;2.27;;;4.80;99.90;;;;;;4984918;28;20206;-63
2022/03/15 02:56:44;;;;;;;0.40;0.40;;;4.70;52.30;;;;;;4990683;28;20750;-62
2022/03/15 02:59:14;;;;;;;0.40;0.40;;;4.80;1.00;;;;;;4998959;28;20198;-62
2022/03/15 03:01:45;;;;;;;0.40;0.40;;;4.80;1.00;;;;;;4983027;28;20189;-62
2022/03/15 03:04:15;;;;;;;0.50;0.50;;;4.80;1.00;;;;;;4998688;28;20218;-62
2022/03/15 03:06:43;;;;;;;0.47;0.47;;;4.80;1.00;;;;;;5000799;28;20209;-62
2022/03/15 03:09:15;;;;;;;0.40;0.40;;;4.80;1.00;;;;;;5000139;28;20212;-63
2022/03/15 03:11:42;;;;;;;0.40;0.40;;;4.80;1.00;;;;;;4985551;28;20278;-63
2022/03/15 03:14:13;;;;;;;0.50;0.50;;;4.80;1.00;;;;;;4979958;28;21868;-63
2022/03/15 03:16:43;;;;;;;0.50;0.50;;;4.80;1.00;;;;;;4984158;28;20198;-64
2022/03/15 03:19:10;;;;;;;0.50;0.50;;;4.80;1.00;;;;;;4999567;28;20241;-62
2022/03/15 03:21:37;;;;;;;0.50;0.50;;;4.80;1.00;;;;;;5006462;28;20233;-63
2022/03/15 03:24:06;;;;;;;1.60;1.60;;;4.80;1.00;;;;;;5000230;28;20712;-62
2022/03/15 03:26:37;;;;;;;0.40;0.40;;;4.80;1.00;;;;;;4990075;28;20219;-62
2022/03/15 03:29:09;;;;;;;0.40;0.40;;;4.80;1.00;;;;;;4984043;28;20243;-62
2022/03/15 03:31:42;;;;;;;0.40;0.40;;;4.80;1.00;;;;;;4981957;28;20252;-62
2022/03/15 03:34:11;;;;;;;0.40;0.40;;;4.80;1.00;;;;;;4983645;28;20260;-62
2022/03/15 03:36:39;;;;;;;0.40;0.40;;;4.80;1.00;;;;;;4982310;28;20206;-62
2022/03/15 03:39:22;;;;;;;0.40;0.40;;;4.70;1.00;;;;;;4982373;28;20216;-63
2022/03/15 03:41:50;;;;;;;0.40;0.40;;;4.70;1.00;;;;;;4982587;28;20230;-62
2022/03/15 03:44:17;;;;;;;0.50;0.50;;;4.70;1.00;;;;;;4989793;28;20300;-62
2022/03/15 03:46:46;;;;;;;0.40;0.40;;;4.70;1.00;;;;;;4987074;28;20904;-62
2022/03/15 03:49:13;;;;;;;0.40;0.40;;;4.70;1.00;;;;;;4998060;28;20266;-62
2022/03/15 03:51:46;;;;;;;0.50;0.50;;;4.60;1.00;;;;;;4983886;28;20669;-62
2022/03/15 03:54:15;;;;;;;0.40;0.40;;;4.70;1.00;;;;;;4982650;28;20256;-62
2022/03/15 03:56:42;;;;;;;0.40;0.40;;;4.70;1.00;;;;;;4996975;28;20257;-63
2022/03/15 03:59:14;;;;;;;0.40;0.40;;;4.70;1.00;;;;;;4982939;28;20253;-63
2022/03/15 04:01:42;;;;;;;0.40;0.40;;;4.70;1.00;;;;;;4988702;28;20193;-64
2022/03/15 04:04:10;;;;;;;0.43;0.43;;;4.70;1.00;;;;;;4980555;28;20205;-63
2022/03/15 04:06:41;;;;;;;0.47;0.47;;;4.70;1.00;;;;;;4981709;28;20216;-63
2022/03/15 04:09:11;;;;;;;0.50;0.50;;;4.70;1.00;;;;;;4983721;28;20240;-63
2022/03/15 04:11:41;;;;;;;0.47;0.47;;;4.70;1.00;;;;;;4983990;28;20693;-63
2022/03/15 04:14:11;;;;;;;0.40;0.40;;;4.70;1.00;;;;;;4987741;28;20205;-63
2022/03/15 04:16:39;;;;;;;0.50;0.50;;;4.70;1.00;;;;;;4995235;28;20213;-63
2022/03/15 04:19:08;;;;;;;0.43;0.43;;;4.70;1.00;;;;;;4988579;28;20281;-63
2022/03/15 04:21:35;;;;;;;0.40;0.40;;;4.70;1.00;;;;;;4989152;28;21039;-63
2022/03/15 04:24:03;;;;;;;0.50;0.50;;;4.70;1.00;;;;;;4983595;28;20583;-63
2022/03/15 04:26:32;;;;;;;0.50;0.50;;;4.70;1.00;;;;;;4997283;28;20197;-63
2022/03/15 04:29:00;;;;;;;0.40;0.40;;;4.70;1.00;;;;;;4997963;28;20304;-61
2022/03/15 04:31:27;;;;;;;0.50;0.50;;;4.60;1.00;;;;;;4996606;28;20221;-62
2022/03/15 04:33:57;;;;;;;0.43;0.43;;;4.70;1.00;;;;;;4987054;28;20285;-62
2022/03/15 04:36:24;;;;;;;0.40;0.40;;;4.60;1.00;;;;;;4980358;28;20612;-62
2022/03/15 04:38:50;;;;;;;0.40;0.40;;;4.60;1.00;;;;;;4980238;28;20268;-63
2022/03/15 04:41:17;;;;;;;0.40;0.40;;;4.60;1.00;;;;;;4971419;28;20556;-63
2022/03/15 04:43:44;;;;;;;0.50;0.50;;;4.60;1.00;;;;;;4987709;28;20218;-63
2022/03/15 04:46:11;;;;;;;0.40;0.40;;;4.60;1.00;;;;;;4984259;28;20233;-63
2022/03/15 04:48:39;;;;;;;0.40;0.40;;;4.50;1.00;;;;;;4984892;28;20206;-63
2022/03/15 04:51:08;;;;;;;0.50;0.50;;;4.60;1.00;;;;;;4997788;28;20725;-62
2022/03/15 04:53:35;;;;;;;0.50;0.50;;;4.60;1.00;;;;;;4971893;28;20201;-62
2022/03/15 04:56:02;;;;;;;0.40;0.40;;;4.60;1.00;;;;;;4996113;28;20209;-62
2022/03/15 04:58:32;;;;;;;0.40;0.40;;;4.60;1.00;;;;;;4979533;28;20208;-62
2022/03/15 05:01:01;;;;;;;0.40;0.40;;;4.40;99.90;;;;;;4996311;28;20221;-62
2022/03/15 05:03:28;;;;;;;1.37;1.37;;;4.40;99.90;;;;;;4995450;28;20367;-62
2022/03/15 05:05:55;;;;;;;0.50;0.50;;;4.40;1.00;;;;;;4997416;28;20202;-62
2022/03/15 05:08:22;;;;;;;0.50;0.50;;;4.50;1.00;;;;;;4981483;28;20234;-62
2022/03/15 05:11:07;;;;;;;0.50;0.50;;;4.50;1.00;;;;;;4995010;28;20765;-61
2022/03/15 05:13:46;;;;;;;0.47;0.47;;;4.40;1.00;;;;;;4985453;28;20603;-61
2022/03/15 05:16:18;;;;;;;0.50;0.50;;;4.50;1.00;;;;;;4978946;28;20198;-61
2022/03/15 05:18:47;;;;;;;0.50;0.50;;;4.50;1.00;;;;;;4979805;28;20221;-61
2022/03/15 05:21:16;;;;;;;0.50;0.50;;;4.50;1.00;;;;;;4979753;28;20197;-62
2022/03/15 05:23:47;;;;;;;0.50;0.50;;;4.50;1.00;;;;;;4995263;28;20254;-62
2022/03/15 05:26:16;;;;;;;0.50;0.50;;;4.50;1.00;;;;;;4995534;28;20217;-62
2022/03/15 05:28:44;;;;;;;0.50;0.50;;;4.50;1.00;;;;;;4987585;28;20296;-61
2022/03/15 05:31:13;;;;;;;0.50;0.50;;;4.40;1.00;;;;;;4997246;28;20209;-62
2022/03/15 05:33:44;;;;;;;0.50;0.50;;;4.50;1.00;;;;;;4987874;28;20237;-62
2022/03/15 05:36:14;;;;;;;0.50;0.50;;;4.50;1.00;;;;;;4998379;28;20226;-61
2022/03/15 05:38:41;;;;;;;0.50;0.50;;;4.50;1.00;;;;;;4981901;28;20293;-61
2022/03/15 05:41:09;;;;;;;0.40;0.40;;;4.60;1.00;;;;;;4981635;28;20308;-62
2022/03/15 05:43:52;;;;;;;0.50;0.50;;;4.60;1.00;;;;;;4995441;28;20553;-62
2022/03/15 05:46:19;;;;;;;0.50;0.50;;;4.60;1.00;;;;;;4970303;28;20236;-62
2022/03/15 05:48:47;;;;;;;0.50;0.50;;;4.60;1.00;;;;;;4988447;28;20237;-62
2022/03/15 05:51:14;;;;;;;0.40;0.40;;;4.70;1.00;;;;;;4987452;28;20222;-62
2022/03/15 05:53:40;;;;;;;0.50;0.50;;;4.70;99.90;;;;;;4996636;28;20229;-63
2022/03/15 05:56:08;;;;;;;0.50;0.50;;;4.70;99.90;;;;;;4997226;28;20198;-63
2022/03/15 05:58:38;;;;;;;0.50;0.50;;;4.70;99.90;;;;;;4981656;28;20202;-62
2022/03/15 06:01:05;;;;;;;0.50;0.50;;;4.80;99.90;;;;;;4979703;28;20201;-62
2022/03/15 06:03:32;;;;;;;0.50;0.50;;;4.80;74.00;;;;;;4984814;28;20311;-63
2022/03/15 06:05:59;;;;;;;0.40;0.40;;;4.80;98.80;;;;;;4984148;28;20221;-63
2022/03/15 06:08:28;;;;;;;0.40;0.40;;;4.80;79.80;;;;;;4985999;28;20212;-62
2022/03/15 06:10:57;;;;;;;0.50;0.50;;;4.90;6.10;;;;;;4996538;28;20682;-63
2022/03/15 06:13:24;;;;;;;0.40;0.40;;;4.90;1.00;;;;;;4979906;28;20210;-64
2022/03/15 06:15:51;;;;;;;0.40;0.40;;;4.90;1.00;;;;;;4994275;28;20297;-64
2022/03/15 06:18:18;;;;;;;0.50;0.50;;;5.00;1.00;;;;;;4984372;28;20199;-62
2022/03/15 06:20:48;;;;;;;0.50;0.50;;;5.00;1.00;;;;;;4969419;28;20580;-62
2022/03/15 06:23:18;;;;;;;1.23;1.23;;;5.00;99.90;;;;;;4993701;28;20268;-63
2022/03/15 06:25:45;;;;;;;0.50;0.50;;;5.00;99.90;;;;;;4993094;28;20212;-63
2022/03/15 06:28:12;;;;;;;0.40;0.40;;;5.10;87.20;;;;;;4999863;28;20269;-63
2022/03/15 06:30:41;;;;;;;0.50;0.50;;;5.10;99.90;;;;;;4998431;28;20273;-62
2022/03/15 06:33:11;;;;;;;3.67;3.53;;;5.20;99.90;;;;;;4998203;28;20197;-62
2022/03/15 06:35:45;;;;;;;0.50;0.50;;;5.30;99.90;;;;;;4983534;28;20197;-63
2022/03/15 06:38:12;;;;;;;0.93;0.93;;;5.30;86.20;;;;;;4981828;28;20203;-62
2022/03/15 06:40:41;;;;;;;0.70;0.70;;;5.20;1.00;;;;;;4984024;28;20229;-62
2022/03/15 06:43:09;;;;;;;0.50;0.50;;;5.30;1.00;;;;;;4987897;28;20280;-63
2022/03/15 06:45:38;;;;;;;0.40;0.40;;;5.40;1.00;;;;;;4996889;28;20292;-62
2022/03/15 06:48:07;;;;;;;0.40;0.40;;;5.40;1.00;;;;;;4997801;28;20353;-61
2022/03/15 06:50:37;;;;;;;0.40;0.40;;;5.40;1.00;;;;;;4972021;28;20249;-62
2022/03/15 06:53:04;;;;;;;0.50;0.50;;;5.50;1.00;;;;;;4998649;28;20504;-62
2022/03/15 06:55:32;;;;;;;0.50;0.50;;;5.60;1.00;;;;;;4999303;28;20230;-62
2022/03/15 06:58:00;;;;;;;0.50;0.50;;;5.60;1.00;;;;;;4983197;28;20198;-62
2022/03/15 07:00:27;;;;;;;0.50;0.50;;;5.70;1.00;;;;;;4986483;28;20198;-62
2022/03/15 07:02:54;;;;;;;2.63;2.53;;;5.70;99.90;;;;;;4999159;28;20214;-62
2022/03/15 07:05:21;;;;;;;0.50;0.50;;;5.80;99.90;;;;;;4988606;28;20223;-63
2022/03/15 07:07:51;;;;;;;0.50;0.50;;;5.80;99.90;;;;;;4989715;28;20201;-62
2022/03/15 07:10:19;;;;;;;0.40;0.40;;;5.90;99.90;;;;;;4981610;28;20198;-62
2022/03/15 07:12:47;;;;;;;0.47;0.47;;;6.00;99.90;;;;;;4983439;28;20284;-63
2022/03/15 07:15:17;;;;;;;0.40;0.40;;;6.10;1.00;;;;;;4998203;28;20194;-63
2022/03/15 07:17:52;;;;;;;0.40;0.40;;;6.20;1.00;;;;;;4999452;28;20189;-62
2022/03/15 07:20:20;;;;;;;0.50;0.50;;;6.30;1.00;;;;;;4998878;28;20198;-62
2022/03/15 07:22:47;;;;;;;0.50;0.50;;;6.40;1.00;;;;;;4999326;28;20703;-62
2022/03/15 07:25:14;;;;;;;0.40;0.40;;;6.30;1.00;;;;;;4983224;28;20205;-63
2022/03/15 07:27:42;;;;;;;0.50;0.50;;;6.50;1.00;;;;;;4990076;28;20665;-62
2022/03/15 07:30:12;;;;;;;0.50;0.50;;;6.60;1.00;;;;;;4984891;28;20208;-62
2022/03/15 07:32:39;;;;;;;0.70;0.70;;;6.70;1.00;;;;;;4977943;28;20629;-63
2022/03/15 07:35:11;;;;;;;0.40;0.40;;;6.80;1.00;;;;;;4982428;28;20198;-62
2022/03/15 07:37:51;;;;;;;0.50;0.50;;;6.90;99.90;;;;;;4999786;28;20236;-63
2022/03/15 07:40:21;;;;;;;0.40;0.40;;;7.00;99.90;;;;;;4998833;28;20198;-62
2022/03/15 07:42:49;;;;;;;0.40;0.40;;;7.00;99.90;;;;;;4988030;28;20244;-63
2022/03/15 07:45:16;;;;;;;0.40;0.40;;;7.00;99.90;;;;;;4987104;28;20244;-62
2022/03/15 07:47:43;;;;;;;0.40;0.40;;;7.00;99.90;;;;;;4996107;28;20221;-63
2022/03/15 07:50:10;;;;;;;0.40;0.40;;;7.00;99.90;;;;;;4999760;28;20661;-62
2022/03/15 07:52:37;;;;;;;0.50;0.50;;;7.10;99.90;;;;;;4986630;28;20214;-62
2022/03/15 07:55:05;;;;;;;0.50;0.50;;;7.10;98.40;;;;;;4999460;28;20229;-62
2022/03/15 07:57:32;;;;;;;0.40;0.40;;;7.30;73.10;;;;;;4986338;28;20205;-62
2022/03/15 07:59:59;;;;;;;0.50;0.50;;;7.30;1.00;;;;;;4985984;28;20711;-63
2022/03/15 08:02:26;;;;;;;0.50;0.50;;;7.40;1.00;;;;;;4993884;28;20208;-62
2022/03/15 08:04:53;;;;;;;0.40;0.40;;;7.40;1.00;;;;;;4984743;28;20261;-63
2022/03/15 08:07:22;;;;;;;0.40;0.40;;;7.50;1.00;;;;;;4998470;28;20236;-63
2022/03/15 08:09:56;;;;;;;0.47;0.47;;;7.60;1.00;;;;;;4982442;28;20197;-63
2022/03/15 08:12:23;;;;;;;0.50;0.50;;;7.70;1.00;;;;;;4984502;28;20735;-63
2022/03/15 08:14:50;;;;;;;0.40;0.40;;;7.80;1.00;;;;;;4982667;28;20756;-62
2022/03/15 08:17:17;;;;;;;0.50;0.50;;;7.90;1.00;;;;;;4985861;28;20619;-63
2022/03/15 08:19:44;;;;;;;0.40;0.40;;;8.00;1.00;;;;;;4999237;28;20241;-62
2022/03/15 08:22:11;;;;;;;0.40;0.40;;;7.90;1.00;;;;;;4999282;28;20202;-62
2022/03/15 08:24:38;;;;;;;0.47;0.47;;;8.00;1.00;;;;;;4983697;28;20209;-62
2022/03/15 08:27:05;;;;;;;0.40;0.40;;;8.20;1.00;;;;;;5000735;28;20290;-63
2022/03/15 08:29:34;;;;;;;0.40;0.40;;;8.30;1.00;;;;;;4998390;28;20673;-63
2022/03/15 08:32:02;;;;;;;0.50;0.50;;;8.40;1.00;;;;;;4995538;28;20395;-63
2022/03/15 08:34:29;;;;;;;0.50;0.50;;;8.50;1.00;;;;;;4993150;28;20204;-63
2022/03/15 08:36:56;;;;;;;0.50;0.50;;;8.70;99.90;;;;;;4980092;28;20229;-63
2022/03/15 08:39:24;;;;;;;0.40;0.40;;;8.80;99.90;;;;;;4982214;28;20681;-63
2022/03/15 08:41:53;;;;;;;0.50;0.50;;;8.90;99.90;;;;;;4980560;28;20243;-62
2022/03/15 08:44:21;;;;;;;0.50;0.50;;;9.00;99.90;;;;;;4994167;28;20572;-63
2022/03/15 08:46:51;;;;;;;0.40;0.40;;;9.10;99.90;;;;;;4980244;28;20220;-62
2022/03/15 08:49:19;;;;;;;0.40;0.40;;;9.10;99.90;;;;;;4975743;28;20205;-62
2022/03/15 08:51:48;;;;;;;0.50;0.50;;;9.20;99.90;;;;;;4976156;28;20304;-62
2022/03/15 08:54:18;;;;;;;0.50;0.50;;;9.20;15.10;;;;;;4997432;28;20289;-62
2022/03/15 08:56:47;;;;;;;0.40;0.40;;;9.20;1.00;;;;;;4984536;28;20289;-62
2022/03/15 08:59:17;;;;;;;0.40;0.40;;;9.30;1.00;;;;;;4985010;28;20197;-62
2022/03/15 09:01:44;;;;;;;16.30;8.70;;;9.10;1.00;;;;;;4977824;28;20193;-62
2022/03/15 09:04:15;;;;;;;16.73;9.20;;;9.10;1.00;;;;;;4986350;28;20198;-62
2022/03/15 09:06:42;;;;;;;13.17;8.60;;;9.30;1.00;;;;;;4980925;28;20256;-62
2022/03/15 09:09:09;;;;;;;15.40;8.43;;;9.30;1.00;;;;;;4985705;28;20655;-62
2022/03/15 09:11:39;;;;;;;14.87;7.70;;;9.50;1.00;;;;;;4986037;28;20328;-63
2022/03/15 09:14:06;;;;;;;11.90;8.20;;;9.50;1.00;;;;;;4984749;28;20198;-63
2022/03/15 09:16:34;;;;;;;16.40;8.60;;;9.50;1.00;;;;;;4979530;28;20285;-63
2022/03/15 09:19:03;;;;;;;14.10;7.43;;;9.50;1.00;;;;;;4978909;28;20680;-63
2022/03/15 09:21:30;;;;;;;11.83;7.77;;;9.40;1.00;;;;;;4978289;28;20296;-63
2022/03/15 09:23:57;;;;;;;15.00;7.50;;;9.50;1.00;;;;;;4979473;28;20245;-63
2022/03/15 09:26:25;;;;;;;12.83;7.23;;;9.40;1.00;;;;;;4979547;28;20207;-63
2022/03/15 09:28:53;;;;;;;14.43;6.97;;;9.50;1.00;;;;;;4981530;28;20235;-62
2022/03/15 09:31:22;;;;;;;9.77;6.20;;;9.60;1.00;;;;;;4994167;28;20237;-62
2022/03/15 09:33:49;;;;;;;11.67;6.63;;;9.70;1.00;;;;;;4992512;28;20229;-63
2022/03/15 09:36:17;;;;;;;13.00;6.37;;;9.70;1.00;;;;;;4993583;28;20225;-63
2022/03/15 09:38:44;;;;;;;14.13;6.40;;;9.80;1.00;;;;;;4992514;28;20194;-63
2022/03/15 09:41:14;;;;;;;11.80;6.67;;;9.90;1.00;;;;;;4980470;28;20272;-63
2022/03/15 09:43:45;;;;;;;10.23;6.80;;;10.00;1.00;;;;;;4990781;28;20190;-62
2022/03/15 09:46:16;;;;;;;8.90;5.97;;;10.10;1.00;;;;;;4980947;28;20233;-62
2022/03/15 09:49:06;;;;;;;9.10;5.90;;;10.00;1.00;;;;;;4977813;28;20232;-63
2022/03/15 09:51:36;;;;;;;11.30;6.50;;;10.00;1.00;;;;;;4978125;28;20558;-62
2022/03/15 09:54:07;;;;;;;7.60;5.37;;;10.20;1.00;;;;;;4991646;28;20238;-63
2022/03/15 09:56:39;;;;;;;11.37;5.50;;;10.30;99.90;;;;;;4981642;28;20213;-63
2022/03/15 09:59:14;;;;;;;8.77;5.50;;;10.40;99.90;;;;;;4977231;28;20194;-64
2022/03/15 10:01:45;;;;;;;9.20;5.67;;;10.50;99.90;;;;;;4983533;28;20218;-64
2022/03/15 10:04:12;;;;;;;14.70;6.13;;;10.50;99.90;;;;;;4982538;28;20656;-62
2022/03/15 10:06:39;;;;;;;8.87;5.40;;;10.60;99.90;;;;;;4998403;28;20233;-62
2022/03/15 10:09:12;;;;;;;10.63;5.43;;;10.60;99.90;;;;;;4983457;28;20202;-63
2022/03/15 10:11:40;;;;;;;13.60;6.13;;;10.80;99.90;;;;;;4985861;28;20213;-62
2022/03/15 10:14:09;;;;;;;9.03;5.50;;;10.90;99.90;;;;;;4998604;28;20206;-63
2022/03/15 10:16:41;;;;;;;11.80;6.27;;;10.90;99.90;;;;;;4984503;28;20203;-62
2022/03/15 10:19:10;;;;;;;8.73;5.40;;;10.90;99.90;;;;;;4983574;28;20280;-62
2022/03/15 10:21:46;;;;;;;8.80;5.33;;;10.80;99.90;;;;;;4982248;28;20256;-63
2022/03/15 10:24:24;;;;;;;12.00;6.50;;;10.90;99.90;;;;;;4980767;28;20249;-62
2022/03/15 10:26:57;;;;;;;8.53;5.00;;;11.10;99.90;;;;;;4983681;28;20208;-62
2022/03/15 10:29:27;;;;;;;9.23;4.77;;;11.00;99.90;;;;;;4983774;28;20253;-63
2022/03/15 10:31:57;;;;;;;8.63;4.90;;;11.10;99.90;;;;;;4979673;28;20210;-62
2022/03/15 10:34:30;;;;;;;7.87;4.57;;;11.20;97.30;;;;;;4987065;28;20729;-62
2022/03/15 10:36:57;;;;;;;10.37;4.70;;;11.20;26.40;;;;;;4987476;28;20230;-63
2022/03/15 10:39:25;;;;;;;10.57;5.17;;;11.20;98.10;;;;;;4986709;28;20280;-62
2022/03/15 10:42:04;;;;;;;10.80;5.47;;;11.20;76.00;;;;;;4984475;28;20234;-63
2022/03/15 10:44:41;;;;;;;8.40;5.03;;;11.10;99.90;;;;;;4983485;28;20209;-62
2022/03/15 10:47:17;;;;;;;11.20;5.40;;;11.00;99.90;;;;;;4981216;28;20244;-62
2022/03/15 10:49:54;;;;;;;10.63;5.73;;;11.00;99.90;;;;;;4980849;28;20208;-63
2022/03/15 10:52:40;;;;;;;7.93;5.07;;;11.10;99.90;;;;;;4984839;28;20301;-62
2022/03/15 10:55:27;;;;;;;9.70;5.53;;;11.20;99.90;;;;;;4982158;28;20228;-62
2022/03/15 10:57:58;;;;;;;9.03;5.27;;;11.30;99.90;;;;;;4977140;28;20268;-63
2022/03/15 11:00:30;;;;;;;9.50;5.50;;;11.40;99.70;;;;;;4978300;28;20229;-62
2022/03/15 11:03:03;;;;;;;7.53;4.80;;;11.40;35.40;;;;;;4977976;28;20545;-65
2022/03/15 11:05:33;;;;;;;7.50;4.07;;;11.50;1.00;;;;;;4978671;28;20293;-63
2022/03/15 11:08:14;;;;;;;6.13;4.23;;;11.50;1.00;;;;;;4992663;28;20566;-64
2022/03/15 11:10:47;;;;;;;14.63;6.30;;;11.50;1.00;;;;;;4978201;28;20285;-63
2022/03/15 11:13:14;;;;;;;17.77;6.10;;;11.50;1.00;;;;;;4977382;28;20233;-63
2022/03/15 11:15:48;;;;;;;19.13;6.40;;;11.30;30.90;;;;;;4982119;28;20617;-63
2022/03/15 11:18:19;;;;;;;11.33;5.33;;;11.30;4.80;;;;;;4981112;28;20186;-64
2022/03/15 11:20:51;;;;;;;11.30;5.10;;;11.30;35.90;;;;;;4982066;28;20194;-63
2022/03/15 11:23:22;;;;;;;11.03;4.47;;;11.60;1.00;;;;;;4993604;28;20252;-64
2022/03/15 11:26:02;;;;;;;11.73;4.97;;;11.70;1.00;;;;;;4981038;28;20846;-63
2022/03/15 11:28:31;;;;;;;9.50;4.10;;;11.70;1.00;;;;;;4981040;28;20216;-63
2022/03/15 11:31:01;;;;;;;9.67;4.80;;;11.80;1.00;;;;;;4983628;28;20248;-63
2022/03/15 11:33:34;;;;;;;12.43;4.83;;;12.00;1.00;;;;;;4996726;28;20210;-64
2022/03/15 11:36:05;;;;;;;12.77;4.73;;;12.00;1.00;;;;;;4986624;28;20249;-63
2022/03/15 11:38:33;;;;;;;10.23;4.50;;;12.00;1.00;;;;;;4987559;28;20284;-63
2022/03/15 11:41:00;;;;;;;11.80;4.87;;;12.10;1.00;;;;;;4981443;28;20198;-65
2022/03/15 11:43:56;;;;;;;7.33;3.83;;;12.20;1.00;;;;;;4985020;28;20578;-63
2022/03/15 11:46:50;;;;;;;14.93;4.43;;;12.20;1.00;;;;;;4982910;28;20610;-63
2022/03/15 11:49:56;;;;;;;15.50;4.13;;;12.30;1.00;;;;;;4983479;28;20285;-63
2022/03/15 11:52:52;;;;;;;9.83;4.20;;;12.50;1.00;;;;;;4995093;28;20267;-63
2022/03/15 11:55:30;;;;;;;6.80;3.70;;;12.60;1.00;;;;;;4978268;28;20206;-63
2022/03/15 11:58:04;;;;;;;9.10;4.50;;;12.70;1.00;;;;;;4978503;28;20197;-63
2022/03/15 12:00:46;;;;;;;14.50;5.47;;;12.60;1.00;;;;;;4972083;28;20221;-63
2022/03/15 12:03:18;;;;;;;10.47;4.83;;;12.50;1.00;;;;;;4983490;28;20208;-63
2022/03/15 12:05:52;;;;;;;8.60;4.50;;;12.50;1.00;;;;;;4976950;28;20613;-63
2022/03/15 12:08:21;;;;;;;8.30;4.73;;;12.50;1.00;;;;;;4979981;28;20198;-63
2022/03/15 12:10:51;;;;;;;10.03;5.00;;;12.50;1.00;;;;;;4976521;28;20206;-64
2022/03/15 12:13:43;;;;;;;9.23;5.30;;;12.60;1.00;;;;;;4980116;28;20193;-63
2022/03/15 12:16:24;;;;;;;10.60;4.80;;;12.50;1.00;;;;;;4992974;28;20611;-62
2022/03/15 12:19:10;;;;;;;15.37;5.40;;;12.60;1.00;;;;;;4993678;28;20213;-62
2022/03/15 12:21:54;;;;;;;10.80;4.83;;;12.50;1.00;;;;;;4973202;28;20702;-62
2022/03/15 12:24:30;;;;;;;8.90;4.70;;;12.50;1.00;;;;;;4976772;28;20205;-63
2022/03/15 12:27:19;;;;;;;9.73;5.10;;;12.60;1.00;;;;;;4983558;28;20208;-62
2022/03/15 12:29:56;;;;;;;8.90;4.73;;;12.70;1.00;;;;;;4976237;28;20279;-63
2022/03/15 12:32:25;;;;;;;9.10;4.73;;;12.80;1.00;;;;;;4993521;28;20249;-62
2022/03/15 12:34:56;;;;;;;7.60;4.93;;;12.80;1.00;;;;;;4980917;28;20640;-63
2022/03/15 12:37:32;;;;;;;7.00;4.63;;;12.80;1.00;;;;;;4977409;28;20210;-63
2022/03/15 12:40:07;;;;;;;13.03;5.40;;;12.80;1.00;;;;;;4978011;28;20543;-63
2022/03/15 12:42:35;;;;;;;9.40;5.37;;;12.70;1.00;;;;;;4996553;28;20304;-63
2022/03/15 12:45:14;;;;;;;9.63;5.80;;;12.60;1.00;;;;;;4992833;28;20229;-63
2022/03/15 12:47:48;;;;;;;13.77;5.87;;;12.70;1.00;;;;;;4993813;28;20272;-63
2022/03/15 12:50:16;;;;;;;6.07;4.57;;;12.70;1.00;;;;;;4980099;28;20713;-63
2022/03/15 12:52:50;;;;;;;8.60;5.33;;;12.70;1.00;;;;;;4976544;28;20293;-63
2022/03/15 12:55:27;;;;;;;10.30;5.13;;;12.80;1.00;;;;;;4979680;28;20259;-63
2022/03/15 12:57:56;;;;;;;8.80;5.20;;;12.70;1.00;;;;;;4964420;28;20201;-63
2022/03/15 13:00:28;;;;;;;9.97;5.07;;;12.70;1.00;;;;;;4978070;28;20253;-63
2022/03/15 13:02:57;;;;;;;7.20;5.33;;;12.90;1.00;;;;;;4974587;28;20237;-63
2022/03/15 13:05:26;;;;;;;9.93;5.03;;;12.90;1.00;;;;;;4977397;28;20206;-63
2022/03/15 13:07:59;;;;;;;7.37;5.00;;;12.90;1.00;;;;;;4977419;28;20285;-63
2022/03/15 13:10:27;;;;;;;10.00;5.50;;;13.00;1.00;;;;;;4992681;28;20244;-63
2022/03/15 13:12:56;;;;;;;8.57;4.77;;;12.80;1.00;;;;;;4984247;28;20234;-63
2022/03/15 13:15:26;;;;;;;9.47;5.40;;;13.00;1.00;;;;;;4973082;28;20284;-63